createdAt,value
2023-01-23T00:00:17.242Z,100618.94
2023-01-23T00:05:21.558Z,100628.94
2023-01-23T00:10:24.553Z,100636.25
2023-01-23T00:15:28.293Z,100627.69
2023-01-23T00:20:32.621Z,100640.81
2023-01-23T00:25:36.341Z,100634.88
2023-01-23T00:30:39.293Z,100639.94
2023-01-23T00:35:43.589Z,100644.44
2023-01-23T00:40:46.474Z,100641.88
2023-01-23T00:45:49.499Z,100640.66
2023-01-23T00:50:54.301Z,100646.16
2023-01-23T00:55:57.366Z,100650.31
2023-01-23T01:01:00.553Z,100649.91
2023-01-23T01:06:05.472Z,100652.53
2023-01-23T01:11:09.080Z,100664.22
2023-01-23T01:16:12.647Z,100673.63
2023-01-23T01:21:17.407Z,100671.91
2023-01-23T01:26:22.951Z,100667.22
2023-01-23T01:31:26.845Z,100674.78
2023-01-23T01:36:32.177Z,100684.56
2023-01-23T01:41:35.765Z,100697.94
2023-01-23T01:46:38.739Z,100696.00
2023-01-23T01:51:47.094Z,100699.69
2023-01-23T01:56:54.587Z,100709.88
2023-01-23T02:02:05.183Z,100713.19
2023-01-23T02:07:15.774Z,100709.50
2023-01-23T02:12:18.708Z,100720.94
2023-01-23T02:17:21.957Z,100722.41
2023-01-23T02:22:35.299Z,100725.22
2023-01-23T02:27:40.972Z,100723.66
2023-01-23T02:32:43.874Z,100725.25
2023-01-23T02:37:48.562Z,100731.75
2023-01-23T02:42:55.442Z,100738.41
2023-01-23T02:48:01.462Z,100741.28
2023-01-23T02:53:05.261Z,100746.16
2023-01-23T02:58:27.695Z,100743.03
2023-01-23T03:03:31.662Z,100731.56
2023-01-23T03:08:36.850Z,100726.75
2023-01-23T03:13:41.747Z,100720.66
2023-01-23T03:18:53.934Z,100710.00
2023-01-23T03:23:57.881Z,100707.41
2023-01-23T03:29:19.754Z,100717.25
2023-01-23T03:34:22.922Z,100719.09
2023-01-23T03:39:43.934Z,100725.38
2023-01-23T03:44:48.821Z,100739.44
2023-01-23T03:49:52.198Z,100742.69
2023-01-23T03:54:55.490Z,100742.50
2023-01-23T03:59:59.859Z,100743.44
2023-01-23T04:05:22.696Z,100750.53
2023-01-23T04:10:25.747Z,100761.53
2023-01-23T04:15:34.344Z,100763.19
2023-01-23T04:20:40.740Z,100768.69
2023-01-23T04:25:43.703Z,100765.78
2023-01-23T04:30:52.247Z,100770.22
2023-01-23T04:36:04.941Z,100771.88
2023-01-23T04:41:07.920Z,100771.25
2023-01-23T04:46:15.315Z,100785.78
2023-01-23T04:51:21.479Z,100788.28
2023-01-23T04:56:24.502Z,100787.25
2023-01-23T05:01:29.085Z,100786.81
2023-01-23T05:06:37.649Z,100785.19
2023-01-23T05:11:42.055Z,100785.16
2023-01-23T05:16:49.082Z,100784.72
2023-01-23T05:22:01.436Z,100793.09
2023-01-23T05:27:05.983Z,100804.16
2023-01-23T05:32:14.798Z,100799.00
2023-01-23T05:37:20.565Z,100798.75
2023-01-23T05:42:27.628Z,100802.16
2023-01-23T05:48:00.835Z,100804.25
2023-01-23T05:53:04.293Z,100808.06
2023-01-23T05:58:07.565Z,100808.78
2023-01-23T06:03:30.113Z,100816.16
2023-01-23T06:08:45.446Z,100820.72
2023-01-23T06:13:48.367Z,100827.84
2023-01-23T06:18:52.999Z,100827.13
2023-01-23T06:23:56.336Z,100839.72
2023-01-23T06:28:59.621Z,100834.22
2023-01-23T06:34:04.017Z,100838.03
2023-01-23T06:39:17.008Z,100851.00
2023-01-23T06:44:20.218Z,100852.50
2023-01-23T06:49:24.648Z,100862.31
2023-01-23T06:54:28.853Z,100860.25
2023-01-23T06:59:37.573Z,100874.72
2023-01-23T07:04:45.691Z,100874.00
2023-01-23T07:09:49.221Z,100878.25
2023-01-23T07:14:56.023Z,100889.31
2023-01-23T07:20:07.124Z,100904.09
2023-01-23T07:25:16.536Z,100924.03
2023-01-23T07:30:20.524Z,100932.97
2023-01-23T07:35:25.062Z,100936.94
2023-01-23T07:40:30.676Z,100943.63
2023-01-23T07:45:33.603Z,100947.38
2023-01-23T07:50:38.148Z,100943.84
2023-01-23T07:55:41.062Z,100942.41
2023-01-23T08:00:44.037Z,100950.63
2023-01-23T08:05:50.884Z,100956.00
2023-01-23T08:10:53.743Z,100955.75
2023-01-23T08:15:58.820Z,100955.44
2023-01-23T08:21:04.176Z,100955.59
2023-01-23T08:26:08.780Z,100957.44
2023-01-23T08:31:13.229Z,100960.41
2023-01-23T08:36:17.541Z,100957.59
2023-01-23T08:41:20.862Z,100956.06
2023-01-23T08:46:24.010Z,100964.63
2023-01-23T08:51:28.354Z,100975.66
2023-01-23T08:56:31.320Z,100975.16
2023-01-23T09:01:34.245Z,100971.16
2023-01-23T09:06:38.975Z,100967.88
2023-01-23T09:11:41.900Z,100973.63
2023-01-23T09:16:44.847Z,100982.00
2023-01-23T09:21:49.264Z,100981.13
2023-01-23T09:26:52.213Z,100996.84
2023-01-23T09:31:55.139Z,101002.66
2023-01-23T09:36:59.406Z,100996.72
2023-01-23T09:42:08.495Z,100997.19
2023-01-23T09:47:16.414Z,100998.66
2023-01-23T09:52:23.415Z,100994.84
2023-01-23T09:57:34.321Z,100981.69
2023-01-23T10:02:37.307Z,100979.16
2023-01-23T10:07:53.275Z,100970.53
2023-01-23T10:13:05.933Z,100970.06
2023-01-23T10:18:24.269Z,100967.81
2023-01-23T10:23:48.176Z,100965.47
2023-01-23T10:28:55.770Z,100962.72
2023-01-23T10:34:08.002Z,100975.47
2023-01-23T10:39:17.249Z,100968.72
2023-01-23T10:44:22.536Z,100972.69
2023-01-23T10:49:30.702Z,100974.25
2023-01-23T10:54:46.699Z,100972.53
2023-01-23T10:59:56.928Z,100970.84
2023-01-23T11:05:00.764Z,100964.00
2023-01-23T11:10:23.158Z,100968.41
2023-01-23T11:15:28.557Z,100959.84
2023-01-23T11:20:33.790Z,100964.25
2023-01-23T11:25:40.808Z,100966.75
2023-01-23T11:30:47.634Z,100957.28
2023-01-23T11:36:01.764Z,100960.63
2023-01-23T11:41:08.673Z,100958.22
2023-01-23T11:46:28.392Z,100952.63
2023-01-23T11:51:38.963Z,100953.47
2023-01-23T11:56:56.479Z,100943.88
2023-01-23T12:02:18.961Z,100948.59
2023-01-23T12:07:24.152Z,100947.75
2023-01-23T12:12:51.327Z,100943.44
2023-01-23T12:18:04.815Z,100938.78
2023-01-23T12:23:38.826Z,100935.84
2023-01-23T12:28:57.901Z,100938.81
2023-01-23T12:34:27.437Z,100941.31
2023-01-23T12:39:50.278Z,100937.88
2023-01-23T12:45:02.843Z,100948.63
2023-01-23T12:50:18.117Z,100934.47
2023-01-23T12:55:25.288Z,100943.03
2023-01-23T13:00:44.602Z,100948.06
2023-01-23T13:05:57.227Z,100947.75
2023-01-23T13:11:23.053Z,100954.69
2023-01-23T13:16:30.804Z,100958.34
2023-01-23T13:21:51.030Z,100953.06
2023-01-23T13:26:54.277Z,100957.09
2023-01-23T13:32:21.188Z,100953.44
2023-01-23T13:37:51.166Z,100959.91
2023-01-23T13:42:54.326Z,100961.31
2023-01-23T14:21:41.016Z,100963.31
2023-01-23T14:26:50.773Z,100956.88
2023-01-23T14:31:54.062Z,100961.84
2023-01-23T14:37:03.990Z,100968.47
2023-01-23T14:42:11.569Z,100968.03
2023-01-23T14:47:28.234Z,100968.53
2023-01-23T14:52:33.984Z,100963.69
2023-01-23T14:57:39.629Z,100963.28
2023-01-23T15:02:43.728Z,100968.44
2023-01-23T15:07:50.111Z,100970.09
2023-01-23T15:12:56.916Z,100976.06
2023-01-23T15:18:01.628Z,100960.78
2023-01-23T15:23:25.605Z,100979.34
2023-01-23T15:28:32.036Z,100964.13
2023-01-23T15:33:39.903Z,100971.34
2023-01-23T15:38:48.901Z,100967.25
2023-01-23T15:43:51.853Z,100974.78
2023-01-23T15:48:55.144Z,100981.56
2023-01-23T15:53:59.526Z,100987.97
2023-01-23T15:59:02.835Z,100995.00
2023-01-23T16:04:05.881Z,100991.31
2023-01-23T16:09:18.808Z,100995.72
2023-01-23T16:14:22.071Z,101001.13
2023-01-23T16:19:25.041Z,100999.63
2023-01-23T16:24:30.342Z,101005.84
2023-01-23T16:29:35.028Z,101009.38
2023-01-23T16:34:38.316Z,101018.69
2023-01-23T16:39:44.330Z,101018.34
2023-01-23T16:44:47.365Z,101017.09
2023-01-23T16:49:53.274Z,101014.56
2023-01-23T16:54:58.468Z,101020.97
2023-01-23T17:00:01.501Z,101016.00
2023-01-23T17:05:04.484Z,101024.84
2023-01-23T17:10:14.236Z,101028.91
2023-01-23T17:15:25.910Z,101038.84
2023-01-23T17:20:29.832Z,101043.53
2023-01-23T17:25:36.676Z,101053.56
2023-01-23T17:30:43.268Z,101047.06
2023-01-23T17:35:48.544Z,101051.44
2023-01-23T17:40:54.849Z,101055.56
2023-01-23T17:45:57.927Z,101051.03
2023-01-23T17:51:01.005Z,101055.78
2023-01-23T17:56:05.891Z,101055.78
2023-01-23T18:01:18.755Z,101058.28
2023-01-23T18:06:21.989Z,101053.03
2023-01-23T18:11:27.671Z,101057.88
2023-01-23T18:16:37.495Z,101062.53
2023-01-23T18:21:40.917Z,101054.41
2023-01-23T18:26:51.218Z,101057.88
2023-01-23T18:32:13.410Z,101059.38
2023-01-23T18:37:24.309Z,101064.13
2023-01-23T18:42:35.771Z,101062.13
2023-01-23T18:47:39.301Z,101060.78
2023-01-23T18:52:51.074Z,101057.78
2023-01-23T18:58:05.502Z,101059.72
2023-01-23T19:03:14.381Z,101052.72
2023-01-23T19:08:31.596Z,101055.13
2023-01-23T19:13:43.866Z,101057.94
2023-01-23T19:18:48.463Z,101056.41
2023-01-23T19:23:57.233Z,101059.19
2023-01-23T19:29:20.016Z,101061.91
2023-01-23T19:34:24.460Z,101063.78
2023-01-23T19:39:29.039Z,101064.41
2023-01-23T19:44:33.658Z,101064.41
2023-01-23T19:49:36.552Z,101066.59
2023-01-23T19:54:39.454Z,101076.38
2023-01-23T19:59:43.681Z,101079.97
2023-01-23T20:04:47.151Z,101080.34
2023-01-23T20:09:50.109Z,101080.88
2023-01-23T20:14:56.847Z,101087.44
2023-01-23T20:19:59.848Z,101079.50
2023-01-23T20:25:02.806Z,101086.66
2023-01-23T20:30:09.354Z,101093.22
2023-01-23T20:35:12.851Z,101083.88
2023-01-23T20:40:15.802Z,101076.09
2023-01-23T20:45:20.553Z,101078.34
2023-01-23T20:50:23.622Z,101080.38
2023-01-23T20:55:26.500Z,101081.16
2023-01-23T21:00:30.720Z,101071.31
2023-01-23T21:05:33.565Z,101078.59
2023-01-23T21:10:36.445Z,101070.41
2023-01-23T21:15:40.689Z,101076.72
2023-01-23T21:20:43.591Z,101077.34
2023-01-23T21:25:46.731Z,101085.63
2023-01-23T21:30:51.106Z,101084.38
2023-01-23T21:35:55.482Z,101085.00
2023-01-23T21:40:58.382Z,101086.28
2023-01-23T21:46:02.759Z,101080.56
2023-01-23T21:51:07.447Z,101082.22
2023-01-23T21:56:11.507Z,101088.09
2023-01-23T22:01:33.757Z,101086.66
2023-01-23T22:06:38.583Z,101077.72
2023-01-23T22:11:41.542Z,101082.94
2023-01-23T22:16:48.909Z,101089.94
2023-01-23T22:21:52.430Z,101087.63
2023-01-23T22:26:55.353Z,101087.97
2023-01-23T22:31:59.760Z,101088.44
2023-01-23T22:37:02.720Z,101089.75
2023-01-23T22:42:05.786Z,101092.16
2023-01-23T22:47:10.110Z,101088.84
2023-01-23T22:52:13.057Z,101095.56
2023-01-23T22:57:15.955Z,101094.31
2023-01-23T23:02:20.227Z,101086.81
2023-01-23T23:07:23.084Z,101085.72
2023-01-23T23:12:28.371Z,101078.66
2023-01-23T23:17:32.648Z,101079.59
2023-01-23T23:22:35.553Z,101078.88
2023-01-23T23:27:39.108Z,101071.66
2023-01-23T23:32:43.405Z,101069.69
2023-01-23T23:37:46.427Z,101062.00
2023-01-23T23:42:49.277Z,101073.13
2023-01-23T23:47:54.998Z,101070.56
2023-01-23T23:52:57.905Z,101079.63
2023-01-23T23:58:00.807Z,101073.72
